Terminal Aerodrome Forecast
Issued by NWS

Home | Current Version | Previous Version | Text Only | Print | Product List | Glossary On
Versions: 1 2 3 4 5 6 7 8 9 10 11 12 13
000
FTUS45 KABQ 281120
TAFSAF
TAF
KSAF 281120Z 2812/0112 22012G20KT 5SM -RASN OVC035
     FM281600 24020G28KT 6SM -RA OVC035
     FM281800 26028G38KT 4SM -SN BLSN OVC020
     FM282200 28022G32KT P6SM VCSH BKN040
     FM010200 29018G24KT P6SM BKN040
     FM010500 31013KT P6SM SCT050=

USA.gov is the U.S. government's official web portal to all federal, state and local government web resources and services.